Time;durP1;ratioP1;P1;durP2;ratioP2;P2;SDS_P1;SDS_P2;PMS_P1;PMS_P2;Temp;Humidity;BMP_temperature;BMP_pressure;BME280_temperature;BME280_humidity;BME280_pressure;Samples;Min_cycle;Max_cycle;Signal;HPM_P1;HPM_P2
2023/03/28 00:00:42;;;;;;;12.23;2.25;;;3.60;99.90;;;;;;5045716;28;20036;-82
2023/03/28 00:03:13;;;;;;;13.85;2.67;;;3.20;99.90;;;;;;5028772;28;20406;-82
2023/03/28 00:05:40;;;;;;;13.85;2.20;;;3.20;99.90;;;;;;5061600;28;20087;-82
2023/03/28 00:08:06;;;;;;;14.57;2.53;;;3.90;99.90;;;;;;5064470;28;20048;-82
2023/03/28 00:10:32;;;;;;;14.95;2.58;;;3.80;99.90;;;;;;5044078;28;20036;-82
2023/03/28 00:12:58;;;;;;;15.90;2.70;;;3.20;99.90;;;;;;5046876;28;20086;-82
2023/03/28 00:15:24;;;;;;;10.95;2.15;;;3.70;99.90;;;;;;5044217;28;20052;-82
2023/03/28 00:17:51;;;;;;;15.60;2.75;;;3.70;99.90;;;;;;5047163;28;20040;-82
2023/03/28 00:20:17;;;;;;;12.25;2.28;;;3.50;99.90;;;;;;5048554;28;20029;-82
2023/03/28 00:22:43;;;;;;;10.85;2.70;;;3.10;99.90;;;;;;5061427;28;20036;-82
2023/03/28 00:25:09;;;;;;;11.65;2.20;;;3.40;99.90;;;;;;5062405;28;20500;-82
2023/03/28 00:27:35;;;;;;;16.80;2.47;;;3.80;99.90;;;;;;5045022;28;20028;-82
2023/03/28 00:30:02;;;;;;;14.52;2.83;;;4.00;99.90;;;;;;5056473;28;20045;-82
2023/03/28 00:32:28;;;;;;;17.42;2.60;;;3.10;99.90;;;;;;5061687;28;20139;-82
2023/03/28 00:34:53;;;;;;;12.18;2.60;;;3.20;99.90;;;;;;5046309;28;20044;-82
2023/03/28 00:37:19;;;;;;;13.38;2.80;;;3.30;99.90;;;;;;5041929;28;20447;-82
2023/03/28 00:39:48;;;;;;;14.48;2.20;;;3.50;99.90;;;;;;5044688;28;20226;-82
2023/03/28 00:42:16;;;;;;;12.30;2.38;;;3.50;99.90;;;;;;5044536;28;20037;-82
2023/03/28 00:44:53;;;;;;;11.23;2.50;;;4.90;99.90;;;;;;5045914;28;20036;-82
2023/03/28 00:47:44;;;;;;;16.88;3.00;;;4.10;99.90;;;;;;5060360;28;20056;-82
2023/03/28 00:50:20;;;;;;;14.90;3.33;;;3.20;99.90;;;;;;5061356;28;20043;-82
2023/03/28 00:53:07;;;;;;;13.95;2.30;;;3.20;99.90;;;;;;5065072;28;20033;-82
2023/03/28 00:55:45;;;;;;;10.93;2.50;;;3.20;99.90;;;;;;5044774;28;20093;-82
2023/03/28 00:58:18;;;;;;;13.98;2.35;;;3.70;99.90;;;;;;5043098;28;20347;-82
2023/03/28 01:00:45;;;;;;;13.13;2.47;;;3.20;99.90;;;;;;5061857;28;20078;-82
2023/03/28 01:03:12;;;;;;;12.07;2.30;;;3.10;99.90;;;;;;5045776;28;20040;-82
2023/03/28 01:05:39;;;;;;;10.70;2.40;;;4.50;99.90;;;;;;5062050;28;20041;-82
2023/03/28 01:08:19;;;;;;;9.98;2.35;;;3.10;99.90;;;;;;5029107;28;20471;-82
2023/03/28 01:10:46;;;;;;;11.32;2.28;;;3.70;99.90;;;;;;5044453;28;21053;-82
2023/03/28 01:13:15;;;;;;;13.20;2.38;;;3.80;99.90;;;;;;5041809;28;20090;-82
2023/03/28 01:27:50;;;;;;;12.48;2.10;;;2.80;99.90;;;;;;5061223;28;20098;-82
2023/03/28 01:30:50;;;;;;;12.35;2.13;;;2.80;99.90;;;;;;5059896;28;20470;-81
2023/03/28 01:33:42;;;;;;;12.00;2.50;;;2.80;99.90;;;;;;5063237;28;20036;-82
2023/03/28 01:36:13;;;;;;;13.32;2.45;;;2.70;99.90;;;;;;5043080;28;20531;-82
2023/03/28 01:38:52;;;;;;;12.63;2.55;;;2.70;99.90;;;;;;5043588;28;20058;-82
2023/03/28 01:41:33;;;;;;;12.85;2.65;;;2.70;99.90;;;;;;5044511;28;20175;-82
2023/03/28 01:44:14;;;;;;;11.65;2.22;;;4.10;99.90;;;;;;5061288;28;20414;-82
2023/03/28 01:47:02;;;;;;;12.18;2.50;;;2.90;99.90;;;;;;5057495;28;20043;-82
2023/03/28 01:49:40;;;;;;;17.40;2.78;;;2.50;99.90;;;;;;5061767;28;20506;-82
2023/03/28 01:52:26;;;;;;;11.32;2.25;;;4.00;99.90;;;;;;5062870;28;20143;-82
2023/03/28 01:55:04;;;;;;;12.00;2.70;;;1.60;99.90;;;;;;5040519;28;20157;-82
2023/03/28 01:57:58;;;;;;;10.82;2.47;;;2.40;99.90;;;;;;5041505;28;20502;-82
2023/03/28 02:00:33;;;;;;;12.90;2.58;;;2.30;99.90;;;;;;5049097;28;20051;-82
2023/03/28 02:03:02;;;;;;;10.65;2.42;;;2.70;99.90;;;;;;5046194;28;20760;-82
2023/03/28 02:05:31;;;;;;;13.20;2.53;;;2.90;99.90;;;;;;5058600;28;20036;-82
2023/03/28 02:07:59;;;;;;;13.43;3.08;;;2.60;99.90;;;;;;5041637;28;20417;-82
2023/03/28 02:10:26;;;;;;;12.73;2.58;;;2.50;99.90;;;;;;5060787;28;20066;-82
2023/03/28 02:13:21;;;;;;;13.15;2.53;;;2.10;99.90;;;;;;5059759;28;20071;-82
2023/03/28 02:15:53;;;;;;;16.63;3.10;;;2.10;99.90;;;;;;5056820;28;20044;-82
2023/03/28 02:18:22;;;;;;;10.90;2.00;;;3.80;99.90;;;;;;5059279;28;20071;-82
2023/03/28 02:20:54;;;;;;;13.55;2.72;;;2.00;99.90;;;;;;5044874;28;20453;-82
2023/03/28 02:23:24;;;;;;;14.82;2.55;;;2.50;99.90;;;;;;5061239;28;20079;-82
2023/03/28 02:25:51;;;;;;;13.65;2.63;;;2.40;99.90;;;;;;5076401;28;20485;-82
2023/03/28 02:28:18;;;;;;;11.68;2.58;;;3.60;99.90;;;;;;5057320;28;20032;-81
2023/03/28 02:30:44;;;;;;;15.27;2.15;;;2.00;99.90;;;;;;5055641;28;20048;-82
2023/03/28 02:33:37;;;;;;;13.32;2.80;;;2.10;99.90;;;;;;5054517;28;20115;-81
2023/03/28 02:36:40;;;;;;;12.52;2.53;;;2.00;99.90;;;;;;5059840;28;20055;-82
2023/03/28 02:39:20;;;;;;;15.07;2.80;;;1.90;99.90;;;;;;5059505;28;20231;-82
2023/03/28 02:42:07;;;;;;;10.98;2.30;;;2.00;99.90;;;;;;5058939;28;20029;-82
2023/03/28 02:44:43;;;;;;;12.80;2.67;;;2.00;99.90;;;;;;5059709;28;20086;-82
2023/03/28 02:47:30;;;;;;;13.45;2.55;;;2.80;99.90;;;;;;5044511;28;20131;-82
2023/03/28 02:50:38;;;;;;;17.23;2.70;;;1.90;99.90;;;;;;5056575;28;20075;-82
2023/03/28 02:53:25;;;;;;;10.55;2.10;;;1.90;99.90;;;;;;5052385;28;20040;-82
2023/03/28 02:56:09;;;;;;;13.95;2.50;;;2.40;99.90;;;;;;5060910;28;20105;-82
2023/03/28 02:58:46;;;;;;;11.45;2.45;;;1.90;99.90;;;;;;5058538;28;20025;-82
2023/03/28 03:01:13;;;;;;;14.80;2.72;;;1.90;99.90;;;;;;5059274;28;20045;-82
2023/03/28 03:03:40;;;;;;;12.30;2.95;;;2.90;99.90;;;;;;5027490;28;20048;-82
2023/03/28 03:06:07;;;;;;;10.95;2.50;;;1.80;99.90;;;;;;5056622;28;20045;-82
2023/03/28 03:08:33;;;;;;;15.38;2.63;;;1.80;99.90;;;;;;5044367;28;20067;-82
2023/03/28 03:10:59;;;;;;;15.48;2.58;;;1.80;99.90;;;;;;5057155;28;20041;-82
2023/03/28 03:13:24;;;;;;;10.68;2.47;;;1.80;99.90;;;;;;5042868;28;20028;-82
2023/03/28 03:15:53;;;;;;;11.05;2.38;;;3.10;99.90;;;;;;5024678;28;20099;-82
2023/03/28 03:18:19;;;;;;;14.30;2.80;;;1.70;99.90;;;;;;5040671;28;20106;-82
2023/03/28 03:20:45;;;;;;;14.45;2.38;;;1.50;99.90;;;;;;5039316;28;20033;-82
2023/03/28 03:23:11;;;;;;;13.38;2.58;;;1.70;99.90;;;;;;5058652;28;20102;-82
2023/03/28 03:25:38;;;;;;;10.90;2.30;;;2.20;99.90;;;;;;5060148;28;20040;-82
2023/03/28 03:28:04;;;;;;;12.95;2.75;;;1.60;99.90;;;;;;5041884;28;20048;-82
2023/03/28 03:30:30;;;;;;;14.88;3.13;;;1.60;99.90;;;;;;5040936;28;20093;-82
2023/03/28 03:32:57;;;;;;;12.20;2.85;;;1.60;99.90;;;;;;5042279;28;20049;-82
2023/03/28 03:35:22;;;;;;;14.55;2.63;;;1.60;99.90;;;;;;5042632;28;20444;-82
2023/03/28 03:37:48;;;;;;;17.50;3.05;;;1.70;99.90;;;;;;5041415;28;20051;-82
2023/03/28 03:40:16;;;;;;;11.40;2.50;;;1.90;99.90;;;;;;5043731;28;20094;-82
2023/03/28 03:42:41;;;;;;;13.18;2.30;;;1.60;99.90;;;;;;5038862;28;20048;-82
2023/03/28 03:45:08;;;;;;;12.93;2.50;;;1.60;99.90;;;;;;5025063;28;20083;-82
2023/03/28 03:47:34;;;;;;;15.32;2.80;;;1.60;99.90;;;;;;5043085;28;20041;-82
2023/03/28 03:50:00;;;;;;;15.23;2.80;;;1.60;99.90;;;;;;5012017;28;20109;-81
2023/03/28 03:52:26;;;;;;;10.15;2.40;;;3.10;99.90;;;;;;5042603;28;20044;-82
2023/03/28 03:54:51;;;;;;;10.38;2.58;;;2.30;99.90;;;;;;5058374;28;20105;-82
2023/03/28 03:57:17;;;;;;;11.82;2.67;;;2.30;99.90;;;;;;5060526;28;20440;-81
2023/03/28 03:59:43;;;;;;;13.07;3.08;;;2.80;99.90;;;;;;5024773;28;20090;-82
2023/03/28 04:02:08;;;;;;;16.52;3.42;;;2.20;99.90;;;;;;5040835;28;20581;-82
2023/03/28 04:04:35;;;;;;;13.32;2.83;;;2.10;99.90;;;;;;5040803;28;20326;-82
2023/03/28 04:07:01;;;;;;;13.15;3.10;;;3.00;99.90;;;;;;5043398;28;20437;-81
2023/03/28 04:09:27;;;;;;;11.70;2.58;;;3.00;99.90;;;;;;5060257;28;20123;-82
2023/03/28 04:11:54;;;;;;;13.30;2.80;;;3.00;99.90;;;;;;5044472;28;20044;-82
2023/03/28 04:14:20;;;;;;;11.60;2.88;;;1.60;99.90;;;;;;5040665;28;20574;-82
2023/03/28 04:16:49;;;;;;;13.68;2.67;;;2.20;99.90;;;;;;5061158;28;20115;-82
2023/03/28 04:19:16;;;;;;;14.93;2.40;;;1.60;99.90;;;;;;5043216;28;20040;-82
2023/03/28 04:21:46;;;;;;;15.32;2.78;;;1.90;99.90;;;;;;5027135;28;20112;-82
2023/03/28 04:24:16;;;;;;;10.25;2.72;;;3.10;99.90;;;;;;5039694;28;20044;-81
2023/03/28 04:26:44;;;;;;;12.43;2.60;;;1.50;99.90;;;;;;5042723;28;20086;-82
2023/03/28 04:29:11;;;;;;;13.40;2.45;;;1.50;99.90;;;;;;5042096;28;20040;-82
2023/03/28 04:31:38;;;;;;;15.10;2.53;;;1.50;99.90;;;;;;5039850;28;20037;-82
2023/03/28 04:34:05;;;;;;;9.85;2.15;;;2.30;99.90;;;;;;5046063;28;20123;-82
2023/03/28 04:36:32;;;;;;;15.00;2.60;;;1.60;99.90;;;;;;5042663;28;20367;-82
2023/03/28 04:39:01;;;;;;;16.27;2.67;;;2.10;99.90;;;;;;5062547;28;20044;-82
2023/03/28 04:41:27;;;;;;;11.25;2.17;;;3.10;99.90;;;;;;5059482;28;20537;-82
2023/03/28 04:43:53;;;;;;;12.88;2.33;;;2.30;99.90;;;;;;5045264;28;20040;-81
2023/03/28 04:46:19;;;;;;;11.80;2.40;;;2.20;99.90;;;;;;5042490;28;20036;-81
2023/03/28 04:48:46;;;;;;;16.42;2.63;;;3.30;99.90;;;;;;5044228;28;20521;-82
2023/03/28 04:51:12;;;;;;;15.05;2.53;;;1.50;99.90;;;;;;5044130;28;20051;-82
2023/03/28 04:53:37;;;;;;;10.02;2.25;;;1.90;99.90;;;;;;5029466;28;20040;-82
2023/03/28 04:56:04;;;;;;;12.98;2.25;;;1.50;99.90;;;;;;5062268;28;20451;-82
2023/03/28 04:58:31;;;;;;;14.07;2.22;;;1.40;99.90;;;;;;5047937;28;20064;-81
2023/03/28 05:00:56;;;;;;;16.05;2.65;;;1.50;99.90;;;;;;5054248;28;20111;-81
2023/03/28 05:03:23;;;;;;;16.00;2.70;;;2.90;99.90;;;;;;5043260;28;20131;-81
2023/03/28 05:05:51;;;;;;;9.27;2.40;;;2.00;99.90;;;;;;5065094;28;20036;-81
2023/03/28 05:08:19;;;;;;;11.10;2.30;;;2.00;99.90;;;;;;5045823;28;20128;-81
2023/03/28 05:10:46;;;;;;;10.60;2.40;;;2.30;99.90;;;;;;5062564;28;20052;-80
2023/03/28 05:13:12;;;;;;;10.18;2.10;;;1.40;99.90;;;;;;5048358;28;20083;-81
2023/03/28 05:15:38;;;;;;;10.95;2.63;;;1.70;99.90;;;;;;5059278;28;20079;-80
2023/03/28 05:18:04;;;;;;;15.55;3.25;;;1.40;99.90;;;;;;5045801;28;20559;-80
2023/03/28 05:20:31;;;;;;;11.40;2.30;;;1.40;99.90;;;;;;5046341;28;20082;-80
2023/03/28 05:22:57;;;;;;;17.73;2.60;;;1.40;99.90;;;;;;5046044;28;20036;-81
2023/03/28 05:25:24;;;;;;;14.85;2.40;;;1.40;99.90;;;;;;5060563;28;20028;-81
2023/03/28 05:27:50;;;;;;;11.77;2.20;;;1.40;99.90;;;;;;5048514;28;20265;-81
2023/03/28 05:30:16;;;;;;;13.13;2.30;;;2.30;99.90;;;;;;5062734;28;20076;-81
2023/03/28 05:32:43;;;;;;;16.17;3.05;;;1.40;99.90;;;;;;5056339;28;20044;-81
2023/03/28 05:35:11;;;;;;;12.98;2.50;;;2.90;99.90;;;;;;5042661;28;20036;-81
2023/03/28 05:37:36;;;;;;;12.25;2.60;;;1.50;99.90;;;;;;5046481;28;20043;-81
2023/03/28 05:40:09;;;;;;;14.70;2.47;;;2.00;99.90;;;;;;5027441;28;20041;-81
2023/03/28 05:42:36;;;;;;;16.67;3.22;;;1.50;99.90;;;;;;5061846;28;20052;-81
2023/03/28 05:45:03;;;;;;;11.85;2.33;;;1.60;99.90;;;;;;5061858;28;20043;-81
2023/03/28 05:47:29;;;;;;;13.25;2.63;;;1.80;99.90;;;;;;5061877;28;20128;-81
2023/03/28 05:49:55;;;;;;;12.10;2.40;;;2.40;99.90;;;;;;5043770;28;20584;-81
2023/03/28 05:52:21;;;;;;;16.75;2.72;;;2.50;99.90;;;;;;5063879;28;20094;-81
2023/03/28 05:54:46;;;;;;;15.07;2.60;;;1.70;99.90;;;;;;5045825;28;20070;-81
2023/03/28 05:57:12;;;;;;;9.95;2.60;;;1.80;99.90;;;;;;5046158;28;20112;-81
2023/03/28 05:59:39;;;;;;;13.40;2.63;;;3.20;99.90;;;;;;5045215;28;20113;-82
2023/03/28 06:02:16;;;;;;;15.07;2.65;;;3.30;99.90;;;;;;5062117;28;20098;-82
2023/03/28 06:04:42;;;;;;;13.70;2.60;;;2.00;99.90;;;;;;5044068;28;20040;-81
2023/03/28 06:07:08;;;;;;;12.68;2.78;;;2.30;99.90;;;;;;5056979;28;20040;-81
2023/03/28 06:09:34;;;;;;;14.23;3.08;;;2.20;99.90;;;;;;5054866;28;20049;-81
2023/03/28 06:12:01;;;;;;;11.75;2.72;;;2.30;99.90;;;;;;5039234;28;20105;-81
2023/03/28 06:14:28;;;;;;;12.48;2.50;;;2.80;99.90;;;;;;5059305;28;20109;-82
2023/03/28 06:16:54;;;;;;;12.98;3.05;;;2.50;99.90;;;;;;5043393;28;20113;-82
2023/03/28 06:19:20;;;;;;;14.93;2.90;;;2.60;99.90;;;;;;5062524;28;20101;-82
2023/03/28 06:21:46;;;;;;;10.90;2.38;;;2.70;99.90;;;;;;5024842;28;20029;-83
2023/03/28 06:24:12;;;;;;;14.35;2.75;;;2.90;99.90;;;;;;5029678;28;20102;-82
2023/03/28 06:26:37;;;;;;;15.32;3.08;;;3.00;99.90;;;;;;5028064;28;20036;-82
2023/03/28 06:29:04;;;;;;;12.98;3.03;;;3.30;99.90;;;;;;5060977;28;20301;-82
2023/03/28 06:31:31;;;;;;;15.88;2.33;;;3.30;99.90;;;;;;5041535;28;20411;-82
2023/03/28 06:33:57;;;;;;;12.07;2.58;;;4.30;99.90;;;;;;5060912;28;20049;-82
2023/03/28 06:36:22;;;;;;;16.17;2.50;;;3.60;99.90;;;;;;5045085;28;20045;-82
2023/03/28 06:38:49;;;;;;;11.35;2.75;;;3.70;99.90;;;;;;5062861;28;20039;-83
2023/03/28 06:41:15;;;;;;;12.95;2.80;;;3.80;99.90;;;;;;5046486;28;20064;-83
2023/03/28 06:43:41;;;;;;;17.48;3.35;;;4.10;99.90;;;;;;5060803;28;20040;-83
2023/03/28 06:46:09;;;;;;;11.38;2.50;;;3.80;99.90;;;;;;5042047;28;20037;-82
2023/03/28 06:48:35;;;;;;;11.07;2.78;;;3.90;99.90;;;;;;5044794;28;20185;-82
2023/03/28 06:51:01;;;;;;;16.08;3.13;;;3.80;99.90;;;;;;5025798;28;20481;-82
2023/03/28 06:53:27;;;;;;;12.68;2.75;;;3.90;99.90;;;;;;5061563;28;20063;-82
2023/03/28 06:55:53;;;;;;;13.57;2.65;;;4.10;99.90;;;;;;5055459;28;20481;-83
2023/03/28 06:58:20;;;;;;;11.85;2.45;;;4.10;99.90;;;;;;5039252;28;20469;-82
2023/03/28 07:00:46;;;;;;;13.85;2.80;;;4.20;99.90;;;;;;5041402;28;20043;-83
2023/03/28 07:03:12;;;;;;;11.52;2.88;;;4.30;99.90;;;;;;5041412;28;20093;-82
2023/03/28 07:05:39;;;;;;;12.30;2.67;;;4.30;99.90;;;;;;5038795;28;20040;-82
2023/03/28 07:08:09;;;;;;;13.52;2.60;;;4.30;99.90;;;;;;5059171;28;20040;-82
2023/03/28 07:10:37;;;;;;;11.48;2.70;;;4.30;99.90;;;;;;5060840;28;20166;-82
2023/03/28 07:13:03;;;;;;;11.73;2.42;;;4.90;99.90;;;;;;5057798;28;20522;-81
2023/03/28 07:15:30;;;;;;;12.77;2.63;;;4.60;99.90;;;;;;5044489;28;20049;-81
2023/03/28 07:17:56;;;;;;;14.88;3.20;;;4.30;99.90;;;;;;5061449;28;20492;-82
2023/03/28 07:20:23;;;;;;;10.85;2.60;;;4.30;99.90;;;;;;5045097;28;20040;-82
2023/03/28 07:22:49;;;;;;;11.15;2.50;;;4.30;99.90;;;;;;5043022;28;20064;-82
2023/03/28 07:25:15;;;;;;;10.90;2.55;;;4.30;99.90;;;;;;5044245;28;20612;-82
2023/03/28 07:27:40;;;;;;;12.20;2.78;;;4.20;99.90;;;;;;5059673;28;20036;-82
2023/03/28 07:30:07;;;;;;;14.93;2.67;;;5.00;99.90;;;;;;5026149;28;20133;-82
2023/03/28 07:32:35;;;;;;;11.50;2.63;;;4.20;99.90;;;;;;5044548;28;20037;-82
2023/03/28 07:35:02;;;;;;;13.75;2.97;;;4.20;99.90;;;;;;5042862;28;20049;-82
2023/03/28 07:37:28;;;;;;;11.20;2.50;;;4.30;99.90;;;;;;5058566;28;20037;-82
2023/03/28 07:39:55;;;;;;;15.07;3.28;;;4.40;99.90;;;;;;5044403;28;20470;-82
2023/03/28 07:42:22;;;;;;;17.10;3.35;;;4.60;99.90;;;;;;5041416;28;20478;-82
2023/03/28 07:44:47;;;;;;;12.20;2.60;;;4.80;99.90;;;;;;5043239;28;20036;-82
2023/03/28 07:47:13;;;;;;;9.38;2.25;;;4.90;99.90;;;;;;5059334;28;20443;-82
2023/03/28 07:49:39;;;;;;;10.10;2.65;;;5.10;99.90;;;;;;5042738;28;20040;-82
2023/03/28 07:52:05;;;;;;;10.88;2.50;;;5.20;99.90;;;;;;5062632;28;20513;-82
2023/03/28 07:54:32;;;;;;;10.77;2.30;;;5.40;99.90;;;;;;5063082;28;20037;-82
2023/03/28 07:56:58;;;;;;;10.30;2.28;;;5.50;99.90;;;;;;5043020;28;20167;-82
2023/03/28 07:59:25;;;;;;;10.05;2.42;;;5.70;99.90;;;;;;5040910;28;20029;-82
2023/03/28 08:01:51;;;;;;;9.63;2.38;;;5.80;99.90;;;;;;5044913;28;20269;-82
2023/03/28 08:04:17;;;;;;;10.80;2.63;;;5.90;99.90;;;;;;5044439;28;20040;-82
2023/03/28 08:06:44;;;;;;;10.07;2.33;;;6.00;99.90;;;;;;5047101;28;20321;-82
2023/03/28 08:09:15;;;;;;;11.93;2.20;;;6.20;99.90;;;;;;5047213;28;20036;-82
2023/03/28 08:11:42;;;;;;;10.73;2.70;;;6.20;99.90;;;;;;5049936;28;20615;-82
2023/03/28 08:14:11;;;;;;;12.48;2.88;;;6.30;99.90;;;;;;5066947;28;20713;-83
2023/03/28 08:16:37;;;;;;;9.50;2.25;;;6.30;99.90;;;;;;5067089;28;20055;-82
2023/03/28 08:19:04;;;;;;;9.45;2.17;;;6.40;99.90;;;;;;5028219;28;20178;-82
2023/03/28 08:21:30;;;;;;;12.15;2.20;;;6.50;99.90;;;;;;5028445;28;20507;-82
2023/03/28 08:23:59;;;;;;;10.23;2.28;;;6.60;99.90;;;;;;5064178;28;20036;-82
2023/03/28 08:26:26;;;;;;;9.30;1.98;;;6.80;99.90;;;;;;5028215;28;20045;-82
2023/03/28 08:28:53;;;;;;;13.13;2.45;;;7.00;99.90;;;;;;5032783;28;20516;-82
2023/03/28 08:31:22;;;;;;;8.70;1.83;;;7.20;99.90;;;;;;5062317;28;20044;-82
2023/03/28 08:33:51;;;;;;;9.25;1.90;;;7.40;99.90;;;;;;5062119;28;20052;-82
2023/03/28 08:36:18;;;;;;;11.55;2.00;;;7.50;99.90;;;;;;5065438;28;20048;-82
2023/03/28 08:38:45;;;;;;;9.18;1.85;;;7.60;99.90;;;;;;5046335;28;20498;-82
2023/03/28 08:41:47;;;;;;;8.50;1.90;;;7.70;99.90;;;;;;5063779;28;20051;-82
2023/03/28 08:44:21;;;;;;;10.63;2.03;;;7.70;99.90;;;;;;5062966;28;20409;-82
2023/03/28 08:47:09;;;;;;;9.88;2.30;;;7.80;99.90;;;;;;5063267;28;20054;-82
2023/03/28 08:49:54;;;;;;;8.20;1.80;;;7.80;99.90;;;;;;5064526;28;20037;-82
2023/03/28 08:52:20;;;;;;;8.13;1.58;;;7.80;99.90;;;;;;5062104;28;20036;-82
2023/03/28 08:54:52;;;;;;;9.02;1.70;;;7.80;99.90;;;;;;5051667;28;20032;-82
2023/03/28 08:57:23;;;;;;;6.20;1.58;;;7.70;99.90;;;;;;5063275;28;20040;-82
2023/03/28 09:00:37;;;;;;;9.32;1.63;;;7.60;99.90;;;;;;5044094;28;20040;-82
2023/03/28 09:03:14;;;;;;;;;;;7.60;99.90;;;;;;5042129;28;20134;-82
2023/03/28 09:05:40;;;;;;;8.45;1.73;;;7.40;99.90;;;;;;5042956;28;19928;-82
2023/03/28 09:08:33;;;;;;;11.05;1.90;;;7.30;99.90;;;;;;5060829;28;20094;-81
2023/03/28 09:11:20;;;;;;;9.82;1.80;;;7.20;99.90;;;;;;5043655;28;20459;-82
2023/03/28 09:14:07;;;;;;;8.27;1.52;;;7.30;99.90;;;;;;5062789;28;20052;-81
2023/03/28 09:17:17;;;;;;;6.97;1.63;;;7.20;99.90;;;;;;5064071;28;20045;-82
2023/03/28 09:19:49;;;;;;;8.25;1.70;;;7.30;99.90;;;;;;5043308;28;20066;-82
2023/03/28 09:22:35;;;;;;;7.75;2.10;;;7.30;99.90;;;;;;5058377;28;20045;-81
2023/03/28 09:25:13;;;;;;;6.85;1.52;;;7.40;99.90;;;;;;5043130;28;20040;-82
2023/03/28 09:28:14;;;;;;;6.60;1.88;;;7.40;99.90;;;;;;5041375;28;20050;-81
2023/03/28 09:30:51;;;;;;;8.18;1.95;;;7.50;99.90;;;;;;5011774;28;20309;-81
2023/03/28 09:33:27;;;;;;;6.82;1.58;;;7.60;99.90;;;;;;5045749;28;20522;-82
2023/03/28 09:35:55;;;;;;;7.95;1.95;;;7.70;99.90;;;;;;5059867;28;20036;-81
2023/03/28 09:38:38;;;;;;;9.68;1.70;;;7.80;99.90;;;;;;5043729;28;20105;-82
2023/03/28 09:41:13;;;;;;;4.93;1.58;;;7.90;99.90;;;;;;5061957;28;20443;-82
2023/03/28 09:43:51;;;;;;;6.82;1.63;;;8.00;99.90;;;;;;5059329;28;20043;-82
2023/03/28 09:46:24;;;;;;;8.55;1.70;;;8.10;99.90;;;;;;5044043;28;20079;-82
2023/03/28 09:48:50;;;;;;;;;;;8.10;99.90;;;;;;5046284;28;20462;-82
2023/03/28 09:51:18;;;;;;;7.10;1.55;;;8.10;99.90;;;;;;5030399;28;19916;-82
2023/03/28 09:53:44;;;;;;;6.40;1.50;;;8.10;99.90;;;;;;5061069;28;20458;-81
2023/03/28 09:56:31;;;;;;;5.43;1.55;;;8.00;99.90;;;;;;5060822;28;20045;-81
2023/03/28 09:59:01;;;;;;;7.47;1.90;;;8.00;99.90;;;;;;5062450;28;20094;-82
2023/03/28 10:01:43;;;;;;;9.35;1.70;;;8.10;99.90;;;;;;5060568;28;20080;-82
2023/03/28 10:04:29;;;;;;;7.85;1.67;;;8.10;99.90;;;;;;5056477;28;20036;-82
2023/03/28 10:07:18;;;;;;;7.07;1.70;;;8.10;99.90;;;;;;5057874;28;20047;-82
2023/03/28 10:09:52;;;;;;;5.95;1.70;;;8.30;99.90;;;;;;5045298;28;20143;-82
2023/03/28 10:12:31;;;;;;;9.07;1.80;;;8.50;99.90;;;;;;5057534;28;20466;-82
2023/03/28 10:14:57;;;;;;;8.95;1.77;;;8.60;99.90;;;;;;5041238;28;20052;-81
2023/03/28 10:17:30;;;;;;;8.25;1.90;;;8.60;99.90;;;;;;5045679;28;20045;-81
2023/03/28 10:20:02;;;;;;;8.38;1.90;;;8.50;99.90;;;;;;5064378;28;20041;-82
2023/03/28 10:22:38;;;;;;;6.50;1.80;;;8.50;99.90;;;;;;5061863;28;20405;-82
2023/03/28 10:25:14;;;;;;;7.30;1.75;;;8.40;99.90;;;;;;5061166;28;20106;-81
2023/03/28 10:27:40;;;;;;;6.95;1.92;;;8.40;99.90;;;;;;5062020;28;21190;-82
2023/03/28 10:30:28;;;;;;;8.05;2.00;;;8.40;99.90;;;;;;5062007;28;20044;-81
2023/03/28 10:33:16;;;;;;;6.30;1.77;;;8.40;99.90;;;;;;5061390;28;20040;-82
2023/03/28 10:35:52;;;;;;;7.72;1.58;;;8.60;99.90;;;;;;5062661;28;20165;-81
2023/03/28 10:38:19;;;;;;;8.30;1.70;;;8.70;99.90;;;;;;5060933;28;20048;-81
2023/03/28 10:41:19;;;;;;;7.50;2.00;;;8.80;99.90;;;;;;5058621;28;20044;-82
2023/03/28 10:43:44;;;;;;;7.90;1.83;;;8.80;99.90;;;;;;5042220;28;20398;-82
2023/03/28 10:46:12;;;;;;;8.98;2.00;;;8.90;99.90;;;;;;5040980;28;20048;-82
2023/03/28 10:48:40;;;;;;;6.60;2.13;;;9.10;99.90;;;;;;5040989;28;20044;-82
2023/03/28 10:51:14;;;;;;;8.20;2.20;;;9.20;99.90;;;;;;5041325;28;20052;-81
2023/03/28 10:53:49;;;;;;;9.48;2.17;;;9.10;99.90;;;;;;5042316;28;20464;-81
2023/03/28 10:56:32;;;;;;;8.98;2.30;;;9.00;99.90;;;;;;5057533;28;20546;-81
2023/03/28 10:59:10;;;;;;;6.90;1.88;;;9.00;99.90;;;;;;5062589;28;20043;-82
2023/03/28 11:01:53;;;;;;;7.35;2.00;;;9.00;99.90;;;;;;5059839;28;20040;-81
2023/03/28 11:04:53;;;;;;;8.60;1.70;;;8.90;99.90;;;;;;5058423;28;20036;-81
2023/03/28 11:07:44;;;;;;;7.72;1.88;;;8.80;99.90;;;;;;5061147;28;20033;-81
2023/03/28 11:10:12;;;;;;;7.95;2.15;;;8.70;99.90;;;;;;5061412;28;20075;-82
2023/03/28 11:13:16;;;;;;;8.15;2.00;;;8.90;99.90;;;;;;5058104;28;20044;-82
2023/03/28 11:16:02;;;;;;;8.43;1.73;;;8.90;99.90;;;;;;5058640;28;20202;-82
2023/03/28 11:18:37;;;;;;;6.97;1.85;;;9.00;99.90;;;;;;5060691;28;20146;-82
2023/03/28 11:21:33;;;;;;;7.72;1.80;;;9.00;99.90;;;;;;5042341;28;20190;-81
2023/03/28 11:24:08;;;;;;;7.50;1.75;;;9.00;99.90;;;;;;5041774;28;20036;-81
2023/03/28 11:26:46;;;;;;;8.93;2.13;;;9.00;99.90;;;;;;5044218;28;20171;-82
2023/03/28 11:29:23;;;;;;;8.15;2.03;;;9.00;99.90;;;;;;5045346;28;20049;-82
2023/03/28 11:32:11;;;;;;;6.88;1.90;;;9.00;99.90;;;;;;5040242;28;20513;-81
2023/03/28 11:35:04;;;;;;;9.20;2.08;;;9.10;99.90;;;;;;5046348;28;20044;-81
2023/03/28 11:37:50;;;;;;;6.53;2.10;;;9.10;99.90;;;;;;5056835;28;20036;-81
2023/03/28 11:40:24;;;;;;;9.43;2.00;;;9.20;99.90;;;;;;5060395;28;20048;-81
2023/03/28 11:43:05;;;;;;;7.72;2.00;;;9.40;99.90;;;;;;5047034;28;20074;-81
2023/03/28 11:45:46;;;;;;;6.97;2.03;;;9.50;99.90;;;;;;5049737;28;20175;-81
2023/03/28 11:48:21;;;;;;;7.50;2.00;;;9.60;99.90;;;;;;5062700;28;20036;-81
2023/03/28 11:51:01;;;;;;;6.60;1.80;;;9.60;99.90;;;;;;5043116;28;20571;-81
2023/03/28 11:53:36;;;;;;;7.63;1.90;;;9.50;99.90;;;;;;5065630;28;20047;-81
2023/03/28 11:56:15;;;;;;;8.00;2.10;;;9.50;99.90;;;;;;5049479;28;20028;-81
2023/03/28 11:58:45;;;;;;;6.72;1.90;;;9.50;99.90;;;;;;5062400;28;20494;-81
2023/03/28 12:01:19;;;;;;;7.50;2.13;;;9.60;99.90;;;;;;5063751;28;20528;-81
2023/03/28 12:04:08;;;;;;;5.95;1.92;;;9.60;99.90;;;;;;5064797;28;20045;-81
2023/03/28 12:06:52;;;;;;;8.55;2.22;;;9.70;99.90;;;;;;5047589;28;20109;-81
2023/03/28 12:09:24;;;;;;;7.78;2.20;;;9.80;99.90;;;;;;5043035;28;20041;-81
2023/03/28 12:11:52;;;;;;;9.25;2.08;;;9.90;99.90;;;;;;5064945;28;20068;-80
2023/03/28 12:14:44;;;;;;;7.80;1.92;;;10.00;99.90;;;;;;5064201;28;20747;-81
2023/03/28 12:17:45;;;;;;;8.38;2.03;;;10.20;99.90;;;;;;5046569;28;20405;-81
2023/03/28 12:20:21;;;;;;;8.25;1.98;;;10.40;99.90;;;;;;5053814;28;20043;-81
2023/03/28 12:22:52;;;;;;;8.02;2.30;;;10.40;99.90;;;;;;5063496;28;20101;-81
2023/03/28 12:25:39;;;;;;;6.90;2.00;;;10.40;99.90;;;;;;5047277;28;20355;-80
2023/03/28 12:28:42;;;;;;;6.82;2.10;;;10.40;99.90;;;;;;5048148;28;20055;-81
2023/03/28 12:31:17;;;;;;;7.03;2.03;;;10.30;99.90;;;;;;5044882;28;20045;-81
2023/03/28 12:33:55;;;;;;;9.32;2.58;;;10.40;99.90;;;;;;5062010;28;20560;-81
2023/03/28 12:36:24;;;;;;;7.82;2.33;;;10.50;99.90;;;;;;5046635;28;20120;-81
2023/03/28 12:39:02;;;;;;;9.07;2.17;;;10.60;99.90;;;;;;5062841;28;20515;-81
2023/03/28 12:41:36;;;;;;;7.88;2.40;;;10.60;99.90;;;;;;5046539;28;20032;-81
2023/03/28 12:44:12;;;;;;;7.75;2.50;;;10.50;99.90;;;;;;5068897;28;20571;-81
2023/03/28 12:46:45;;;;;;;6.43;2.15;;;10.40;99.90;;;;;;5061937;28;20037;-81
2023/03/28 12:49:33;;;;;;;9.95;2.55;;;10.50;99.90;;;;;;5063082;28;20047;-81
2023/03/28 12:52:02;;;;;;;7.70;2.20;;;10.60;99.90;;;;;;5046310;28;20559;-81
2023/03/28 12:54:32;;;;;;;8.38;2.30;;;10.70;99.90;;;;;;5041190;28;20033;-81
2023/03/28 12:56:59;;;;;;;10.35;2.40;;;10.80;99.90;;;;;;5063774;28;20060;-81
2023/03/28 12:59:55;;;;;;;8.38;2.22;;;10.70;99.90;;;;;;5064381;28;20073;-81
2023/03/28 13:02:33;;;;;;;8.45;2.30;;;10.70;99.90;;;;;;5058381;28;20052;-81
2023/03/28 13:05:15;;;;;;;7.35;2.28;;;10.70;99.90;;;;;;5060319;28;20036;-81
2023/03/28 13:07:51;;;;;;;8.25;2.40;;;10.60;99.90;;;;;;5061303;28;20098;-81
2023/03/28 13:10:28;;;;;;;11.55;2.58;;;10.70;99.90;;;;;;5045466;28;20123;-81
2023/03/28 13:13:22;;;;;;;8.90;2.13;;;10.80;99.90;;;;;;5063917;28;20048;-81
2023/03/28 13:15:55;;;;;;;6.18;1.95;;;11.00;99.90;;;;;;5045750;28;20129;-81
2023/03/28 13:18:26;;;;;;;8.68;2.13;;;10.90;99.90;;;;;;5059571;28;20036;-81
2023/03/28 13:20:53;;;;;;;8.18;2.08;;;10.90;99.90;;;;;;5062921;28;20033;-81
2023/03/28 13:23:28;;;;;;;7.53;2.20;;;10.80;99.90;;;;;;5064103;28;20040;-81
2023/03/28 13:26:00;;;;;;;9.05;2.22;;;10.70;99.90;;;;;;5062561;28;20436;-81
2023/03/28 13:28:43;;;;;;;8.27;2.40;;;10.50;99.90;;;;;;5063171;28;20094;-81
2023/03/28 13:31:21;;;;;;;8.53;2.40;;;10.50;99.90;;;;;;5057827;28;20044;-81